sensor_id;sensor_type;location;lat;lon;timestamp;pressure;altitude;pressure_sealevel;temperature;humidity
61814;BME280;57055;-35.296;149.168;2023-02-13T00:01:26;94720.16;;;17.40;61.01
61814;BME280;57055;-35.296;149.168;2023-02-13T00:03:55;94715.68;;;16.96;61.51
61814;BME280;57055;-35.296;149.168;2023-02-13T00:06:24;94717.62;;;16.90;60.97
61814;BME280;57055;-35.296;149.168;2023-02-13T00:08:53;94722.38;;;16.89;61.17
61814;BME280;57055;-35.296;149.168;2023-02-13T00:11:22;94721.15;;;16.95;61.19
61814;BME280;57055;-35.296;149.168;2023-02-13T00:13:50;94722.06;;;17.04;61.40
61814;BME280;57055;-35.296;149.168;2023-02-13T00:16:19;94723.68;;;17.22;61.08
61814;BME280;57055;-35.296;149.168;2023-02-13T00:18:48;94722.06;;;17.28;61.20
61814;BME280;57055;-35.296;149.168;2023-02-13T00:21:16;94724.20;;;17.30;61.30
61814;BME280;57055;-35.296;149.168;2023-02-13T00:23:45;94728.27;;;16.88;60.66
61814;BME280;57055;-35.296;149.168;2023-02-13T00:26:15;94727.35;;;16.85;61.59
61814;BME280;57055;-35.296;149.168;2023-02-13T00:28:45;94731.18;;;16.76;60.98
61814;BME280;57055;-35.296;149.168;2023-02-13T00:31:18;94727.86;;;16.70;61.01
61814;BME280;57055;-35.296;149.168;2023-02-13T00:33:48;94726.21;;;16.82;60.89
61814;BME280;57055;-35.296;149.168;2023-02-13T00:36:19;94723.56;;;16.85;61.23
61814;BME280;57055;-35.296;149.168;2023-02-13T00:38:48;94720.57;;;17.09;60.66
61814;BME280;57055;-35.296;149.168;2023-02-13T00:41:18;94721.29;;;17.13;60.64
61814;BME280;57055;-35.296;149.168;2023-02-13T00:43:47;94718.52;;;16.96;60.52
61814;BME280;57055;-35.296;149.168;2023-02-13T00:46:16;94716.16;;;17.07;60.71
61814;BME280;57055;-35.296;149.168;2023-02-13T00:48:45;94713.73;;;16.92;60.86
61814;BME280;57055;-35.296;149.168;2023-02-13T00:51:15;94716.02;;;16.93;60.20
61814;BME280;57055;-35.296;149.168;2023-02-13T00:53:44;94713.90;;;16.90;60.54
61814;BME280;57055;-35.296;149.168;2023-02-13T00:56:12;94711.39;;;17.12;60.03
61814;BME280;57055;-35.296;149.168;2023-02-13T00:58:41;94711.27;;;16.85;60.08
61814;BME280;57055;-35.296;149.168;2023-02-13T01:01:10;94708.10;;;16.75;59.88
61814;BME280;57055;-35.296;149.168;2023-02-13T01:03:39;94703.15;;;16.96;60.04
61814;BME280;57055;-35.296;149.168;2023-02-13T01:06:09;94703.00;;;16.97;60.39
61814;BME280;57055;-35.296;149.168;2023-02-13T01:08:39;94701.61;;;16.87;60.75
61814;BME280;57055;-35.296;149.168;2023-02-13T01:11:08;94701.33;;;16.93;60.65
61814;BME280;57055;-35.296;149.168;2023-02-13T01:13:38;94702.02;;;16.98;59.83
61814;BME280;57055;-35.296;149.168;2023-02-13T01:16:07;94708.63;;;17.27;60.13
61814;BME280;57055;-35.296;149.168;2023-02-13T01:18:37;94712.70;;;17.12;60.27
61814;BME280;57055;-35.296;149.168;2023-02-13T01:21:18;94709.85;;;17.09;59.19
61814;BME280;57055;-35.296;149.168;2023-02-13T01:23:48;94702.27;;;17.28;59.67
61814;BME280;57055;-35.296;149.168;2023-02-13T01:26:19;94696.88;;;17.16;60.08
61814;BME280;57055;-35.296;149.168;2023-02-13T01:28:50;94690.94;;;17.14;59.47
61814;BME280;57055;-35.296;149.168;2023-02-13T01:31:19;94689.07;;;17.16;59.35
61814;BME280;57055;-35.296;149.168;2023-02-13T01:33:48;94683.78;;;16.98;58.95
61814;BME280;57055;-35.296;149.168;2023-02-13T01:36:17;94682.08;;;17.23;59.34
61814;BME280;57055;-35.296;149.168;2023-02-13T01:38:46;94678.97;;;17.27;58.28
61814;BME280;57055;-35.296;149.168;2023-02-13T01:41:15;94675.55;;;17.47;59.07
61814;BME280;57055;-35.296;149.168;2023-02-13T01:43:47;94670.82;;;17.16;58.78
61814;BME280;57055;-35.296;149.168;2023-02-13T01:46:21;94671.83;;;17.34;58.36
61814;BME280;57055;-35.296;149.168;2023-02-13T01:48:52;94673.32;;;17.49;57.37
61814;BME280;57055;-35.296;149.168;2023-02-13T01:51:24;94667.02;;;17.42;57.62
61814;BME280;57055;-35.296;149.168;2023-02-13T01:53:59;94664.82;;;17.61;57.54
61814;BME280;57055;-35.296;149.168;2023-02-13T01:56:32;94666.23;;;17.68;57.73
61814;BME280;57055;-35.296;149.168;2023-02-13T01:59:06;94665.50;;;17.80;58.13
61814;BME280;57055;-35.296;149.168;2023-02-13T02:01:37;94662.40;;;17.73;57.80
61814;BME280;57055;-35.296;149.168;2023-02-13T02:04:09;94659.38;;;17.98;57.08
61814;BME280;57055;-35.296;149.168;2023-02-13T02:06:43;94654.20;;;17.70;57.27
61814;BME280;57055;-35.296;149.168;2023-02-13T02:09:17;94652.73;;;17.98;57.09
61814;BME280;57055;-35.296;149.168;2023-02-13T02:11:54;94645.21;;;17.98;56.42
61814;BME280;57055;-35.296;149.168;2023-02-13T02:14:26;94645.39;;;18.00;55.99
61814;BME280;57055;-35.296;149.168;2023-02-13T02:16:56;94643.85;;;17.96;56.21
61814;BME280;57055;-35.296;149.168;2023-02-13T02:19:34;94648.94;;;17.88;56.82
61814;BME280;57055;-35.296;149.168;2023-02-13T02:24:23;94643.00;;;18.52;56.05
61814;BME280;57055;-35.296;149.168;2023-02-13T02:27:58;94639.81;;;18.23;55.79
61814;BME280;57055;-35.296;149.168;2023-02-13T02:30:55;94634.87;;;18.57;55.67
61814;BME280;57055;-35.296;149.168;2023-02-13T02:33:36;94628.19;;;18.63;55.28
61814;BME280;57055;-35.296;149.168;2023-02-13T02:36:20;94627.28;;;18.57;55.20
61814;BME280;57055;-35.296;149.168;2023-02-13T02:39:00;94623.35;;;18.55;54.41
61814;BME280;57055;-35.296;149.168;2023-02-13T02:41:43;94620.53;;;18.93;54.92
61814;BME280;57055;-35.296;149.168;2023-02-13T02:44:30;94621.87;;;19.09;54.44
61814;BME280;57055;-35.296;149.168;2023-02-13T02:47:08;94622.04;;;19.06;54.25
61814;BME280;57055;-35.296;149.168;2023-02-13T02:49:38;94623.88;;;19.17;54.12
61814;BME280;57055;-35.296;149.168;2023-02-13T02:52:13;94621.70;;;19.30;53.75
61814;BME280;57055;-35.296;149.168;2023-02-13T02:54:47;94621.72;;;18.93;53.72
61814;BME280;57055;-35.296;149.168;2023-02-13T02:57:22;94616.23;;;19.01;53.75
61814;BME280;57055;-35.296;149.168;2023-02-13T02:59:53;94612.32;;;19.03;53.75
61814;BME280;57055;-35.296;149.168;2023-02-13T03:02:24;94609.79;;;18.95;53.72
61814;BME280;57055;-35.296;149.168;2023-02-13T03:04:55;94607.69;;;18.95;53.85
61814;BME280;57055;-35.296;149.168;2023-02-13T03:07:27;94604.13;;;19.03;53.10
61814;BME280;57055;-35.296;149.168;2023-02-13T03:09:58;94601.00;;;19.11;53.35
61814;BME280;57055;-35.296;149.168;2023-02-13T03:12:32;94599.23;;;19.15;53.38
61814;BME280;57055;-35.296;149.168;2023-02-13T03:15:04;94598.16;;;19.43;52.71
61814;BME280;57055;-35.296;149.168;2023-02-13T03:17:33;94595.23;;;19.57;52.53
61814;BME280;57055;-35.296;149.168;2023-02-13T03:20:14;94592.20;;;19.51;53.04
61814;BME280;57055;-35.296;149.168;2023-02-13T03:22:55;94589.88;;;19.58;53.46
61814;BME280;57055;-35.296;149.168;2023-02-13T03:25:29;94584.98;;;19.67;52.90
61814;BME280;57055;-35.296;149.168;2023-02-13T03:28:04;94582.96;;;19.84;52.64
61814;BME280;57055;-35.296;149.168;2023-02-13T03:30:42;94580.32;;;19.61;52.24
61814;BME280;57055;-35.296;149.168;2023-02-13T03:33:26;94572.54;;;19.78;51.80
61814;BME280;57055;-35.296;149.168;2023-02-13T03:36:03;94568.49;;;20.40;50.96
61814;BME280;57055;-35.296;149.168;2023-02-13T03:38:41;94568.14;;;20.21;50.83
61814;BME280;57055;-35.296;149.168;2023-02-13T03:41:17;94565.44;;;20.47;50.45
61814;BME280;57055;-35.296;149.168;2023-02-13T03:43:55;94559.56;;;20.34;50.59
61814;BME280;57055;-35.296;149.168;2023-02-13T03:46:29;94552.08;;;20.43;50.29
61814;BME280;57055;-35.296;149.168;2023-02-13T03:49:01;94546.28;;;20.72;50.23
61814;BME280;57055;-35.296;149.168;2023-02-13T03:51:35;94541.83;;;20.65;49.87
61814;BME280;57055;-35.296;149.168;2023-02-13T03:54:11;94539.20;;;20.60;50.50
61814;BME280;57055;-35.296;149.168;2023-02-13T03:56:44;94531.77;;;20.42;49.73
61814;BME280;57055;-35.296;149.168;2023-02-13T03:59:25;94527.07;;;20.57;49.50
61814;BME280;57055;-35.296;149.168;2023-02-13T04:02:03;94521.16;;;20.72;49.51
61814;BME280;57055;-35.296;149.168;2023-02-13T04:04:42;94506.92;;;20.75;48.78
61814;BME280;57055;-35.296;149.168;2023-02-13T04:07:16;94504.05;;;20.64;49.94
61814;BME280;57055;-35.296;149.168;2023-02-13T04:09:46;94499.01;;;20.81;49.75
61814;BME280;57055;-35.296;149.168;2023-02-13T04:12:17;94500.43;;;21.24;48.89
61814;BME280;57055;-35.296;149.168;2023-02-13T04:14:49;94493.46;;;21.07;48.10
61814;BME280;57055;-35.296;149.168;2023-02-13T04:17:26;94494.17;;;20.67;48.62
61814;BME280;57055;-35.296;149.168;2023-02-13T04:19:57;94485.07;;;21.01;47.81
61814;BME280;57055;-35.296;149.168;2023-02-13T04:22:27;94483.04;;;20.91;47.72
61814;BME280;57055;-35.296;149.168;2023-02-13T04:24:56;94479.85;;;21.05;48.05
61814;BME280;57055;-35.296;149.168;2023-02-13T04:27:27;94479.41;;;21.40;47.90
61814;BME280;57055;-35.296;149.168;2023-02-13T04:29:56;94478.07;;;21.47;47.77
61814;BME280;57055;-35.296;149.168;2023-02-13T04:32:25;94481.80;;;21.03;48.07
61814;BME280;57055;-35.296;149.168;2023-02-13T04:34:53;94476.10;;;21.49;47.63
61814;BME280;57055;-35.296;149.168;2023-02-13T04:37:22;94472.40;;;21.71;46.96
61814;BME280;57055;-35.296;149.168;2023-02-13T04:39:51;94471.62;;;21.35;47.15
61814;BME280;57055;-35.296;149.168;2023-02-13T04:42:20;94466.74;;;21.62;47.30
61814;BME280;57055;-35.296;149.168;2023-02-13T04:44:49;94463.91;;;21.79;47.20
61814;BME280;57055;-35.296;149.168;2023-02-13T04:47:17;94467.85;;;21.61;46.57
61814;BME280;57055;-35.296;149.168;2023-02-13T04:49:46;94468.31;;;21.47;45.91
61814;BME280;57055;-35.296;149.168;2023-02-13T04:52:15;94468.60;;;21.23;45.79
61814;BME280;57055;-35.296;149.168;2023-02-13T04:54:44;94471.58;;;21.38;46.17
61814;BME280;57055;-35.296;149.168;2023-02-13T04:57:14;94470.39;;;21.43;45.83
61814;BME280;57055;-35.296;149.168;2023-02-13T04:59:43;94465.18;;;21.49;46.21
61814;BME280;57055;-35.296;149.168;2023-02-13T05:02:11;94459.13;;;21.87;46.13
61814;BME280;57055;-35.296;149.168;2023-02-13T05:04:39;94454.89;;;21.73;46.10
61814;BME280;57055;-35.296;149.168;2023-02-13T05:07:08;94453.72;;;21.57;46.53
61814;BME280;57055;-35.296;149.168;2023-02-13T05:09:37;94453.67;;;21.48;46.78
61814;BME280;57055;-35.296;149.168;2023-02-13T05:12:07;94454.30;;;21.53;47.15
61814;BME280;57055;-35.296;149.168;2023-02-13T05:14:36;94450.20;;;21.56;46.86
61814;BME280;57055;-35.296;149.168;2023-02-13T05:17:05;94446.24;;;21.32;46.47
61814;BME280;57055;-35.296;149.168;2023-02-13T05:19:34;94441.52;;;21.08;47.07
61814;BME280;57055;-35.296;149.168;2023-02-13T05:22:03;94440.59;;;21.38;47.57
61814;BME280;57055;-35.296;149.168;2023-02-13T05:24:32;94443.29;;;21.27;46.81
61814;BME280;57055;-35.296;149.168;2023-02-13T05:27:01;94441.46;;;21.23;46.59
61814;BME280;57055;-35.296;149.168;2023-02-13T05:29:29;94434.02;;;21.06;46.83
61814;BME280;57055;-35.296;149.168;2023-02-13T05:31:58;94429.19;;;20.84;46.82
61814;BME280;57055;-35.296;149.168;2023-02-13T05:34:28;94426.63;;;21.15;46.14
61814;BME280;57055;-35.296;149.168;2023-02-13T05:36:56;94421.39;;;21.37;45.82
61814;BME280;57055;-35.296;149.168;2023-02-13T05:39:26;94420.77;;;21.33;47.17
61814;BME280;57055;-35.296;149.168;2023-02-13T05:41:55;94417.32;;;21.54;47.54
61814;BME280;57055;-35.296;149.168;2023-02-13T05:44:24;94414.20;;;21.57;47.53
61814;BME280;57055;-35.296;149.168;2023-02-13T05:46:53;94410.66;;;21.49;47.71
61814;BME280;57055;-35.296;149.168;2023-02-13T05:49:21;94417.62;;;21.29;47.85
61814;BME280;57055;-35.296;149.168;2023-02-13T05:51:50;94421.98;;;20.96;47.57
61814;BME280;57055;-35.296;149.168;2023-02-13T05:54:20;94420.97;;;21.06;47.66
61814;BME280;57055;-35.296;149.168;2023-02-13T05:56:49;94411.60;;;20.71;48.32
61814;BME280;57055;-35.296;149.168;2023-02-13T05:59:18;94406.14;;;20.98;48.50
61814;BME280;57055;-35.296;149.168;2023-02-13T06:01:47;94402.12;;;20.89;48.54
61814;BME280;57055;-35.296;149.168;2023-02-13T06:04:15;94399.68;;;20.89;48.67
61814;BME280;57055;-35.296;149.168;2023-02-13T06:06:44;94407.13;;;20.99;48.34
61814;BME280;57055;-35.296;149.168;2023-02-13T06:09:13;94402.41;;;20.86;47.83
61814;BME280;57055;-35.296;149.168;2023-02-13T06:11:42;94404.09;;;21.12;48.41
61814;BME280;57055;-35.296;149.168;2023-02-13T06:14:12;94401.48;;;21.35;48.05
61814;BME280;57055;-35.296;149.168;2023-02-13T06:16:42;94404.28;;;21.01;46.71
61814;BME280;57055;-35.296;149.168;2023-02-13T06:19:11;94406.29;;;21.28;47.07
61814;BME280;57055;-35.296;149.168;2023-02-13T06:21:40;94408.61;;;21.45;46.96
61814;BME280;57055;-35.296;149.168;2023-02-13T06:24:09;94413.70;;;21.17;47.05
61814;BME280;57055;-35.296;149.168;2023-02-13T06:26:38;94410.07;;;21.52;46.58
61814;BME280;57055;-35.296;149.168;2023-02-13T06:29:07;94408.23;;;21.55;46.20
61814;BME280;57055;-35.296;149.168;2023-02-13T06:31:37;94408.14;;;21.24;46.46
61814;BME280;57055;-35.296;149.168;2023-02-13T06:34:06;94404.24;;;21.32;46.36
61814;BME280;57055;-35.296;149.168;2023-02-13T06:36:35;94398.39;;;21.25;46.00
61814;BME280;57055;-35.296;149.168;2023-02-13T06:39:04;94395.58;;;21.63;46.06
61814;BME280;57055;-35.296;149.168;2023-02-13T06:41:32;94396.59;;;21.48;46.56
61814;BME280;57055;-35.296;149.168;2023-02-13T06:44:01;94395.13;;;21.64;46.00
61814;BME280;57055;-35.296;149.168;2023-02-13T06:46:29;94396.23;;;21.56;45.65
61814;BME280;57055;-35.296;149.168;2023-02-13T06:48:58;94391.01;;;21.72;46.64
61814;BME280;57055;-35.296;149.168;2023-02-13T06:51:27;94387.71;;;21.38;46.20
61814;BME280;57055;-35.296;149.168;2023-02-13T06:53:56;94388.03;;;21.39;46.23
61814;BME280;57055;-35.296;149.168;2023-02-13T06:56:25;94390.78;;;21.39;46.42
61814;BME280;57055;-35.296;149.168;2023-02-13T06:58:54;94389.19;;;21.88;46.13
61814;BME280;57055;-35.296;149.168;2023-02-13T07:01:22;94383.92;;;21.20;46.37
61814;BME280;57055;-35.296;149.168;2023-02-13T07:03:52;94386.42;;;21.50;47.07
61814;BME280;57055;-35.296;149.168;2023-02-13T07:06:21;94383.27;;;21.27;46.61
61814;BME280;57055;-35.296;149.168;2023-02-13T07:08:50;94389.08;;;21.22;47.07
61814;BME280;57055;-35.296;149.168;2023-02-13T07:11:19;94392.88;;;21.06;47.94
61814;BME280;57055;-35.296;149.168;2023-02-13T07:13:47;94398.14;;;20.90;47.74
61814;BME280;57055;-35.296;149.168;2023-02-13T07:16:17;94394.71;;;20.78;47.69
61814;BME280;57055;-35.296;149.168;2023-02-13T07:18:45;94398.63;;;20.72;47.64
61814;BME280;57055;-35.296;149.168;2023-02-13T07:21:14;94396.67;;;20.61;47.94
61814;BME280;57055;-35.296;149.168;2023-02-13T07:23:42;94397.36;;;20.56;48.22
61814;BME280;57055;-35.296;149.168;2023-02-13T07:26:11;94406.42;;;20.69;48.32
61814;BME280;57055;-35.296;149.168;2023-02-13T07:28:40;94408.39;;;20.35;48.49
61814;BME280;57055;-35.296;149.168;2023-02-13T07:31:09;94410.19;;;20.56;48.57
61814;BME280;57055;-35.296;149.168;2023-02-13T07:33:38;94415.56;;;20.47;48.67
61814;BME280;57055;-35.296;149.168;2023-02-13T07:36:08;94411.91;;;20.55;48.55
61814;BME280;57055;-35.296;149.168;2023-02-13T07:38:38;94409.95;;;20.32;48.52
61814;BME280;57055;-35.296;149.168;2023-02-13T07:41:07;94407.15;;;20.25;48.87
61814;BME280;57055;-35.296;149.168;2023-02-13T07:43:36;94416.95;;;20.64;48.55
61814;BME280;57055;-35.296;149.168;2023-02-13T07:46:05;94415.64;;;20.24;48.63
61814;BME280;57055;-35.296;149.168;2023-02-13T07:48:34;94418.75;;;20.56;48.76
61814;BME280;57055;-35.296;149.168;2023-02-13T07:51:04;94423.67;;;20.24;48.86
61814;BME280;57055;-35.296;149.168;2023-02-13T07:53:34;94423.50;;;20.43;48.99
61814;BME280;57055;-35.296;149.168;2023-02-13T07:56:06;94431.61;;;20.43;48.57
61814;BME280;57055;-35.296;149.168;2023-02-13T07:58:35;94435.15;;;20.56;49.08
61814;BME280;57055;-35.296;149.168;2023-02-13T08:01:07;94439.54;;;20.46;49.69
61814;BME280;57055;-35.296;149.168;2023-02-13T08:03:36;94446.90;;;20.18;49.71
61814;BME280;57055;-35.296;149.168;2023-02-13T08:06:06;94454.93;;;20.04;50.20
61814;BME280;57055;-35.296;149.168;2023-02-13T08:08:36;94467.27;;;20.01;50.63
61814;BME280;57055;-35.296;149.168;2023-02-13T08:11:07;94472.22;;;19.69;51.40
61814;BME280;57055;-35.296;149.168;2023-02-13T08:13:36;94495.25;;;19.56;51.30
61814;BME280;57055;-35.296;149.168;2023-02-13T08:16:05;94492.93;;;19.37;51.84
61814;BME280;57055;-35.296;149.168;2023-02-13T08:18:35;94497.83;;;19.36;51.90
61814;BME280;57055;-35.296;149.168;2023-02-13T08:21:04;94507.95;;;19.42;51.30
61814;BME280;57055;-35.296;149.168;2023-02-13T08:23:33;94512.72;;;19.50;51.45
61814;BME280;57055;-35.296;149.168;2023-02-13T08:26:03;94516.42;;;19.10;51.63
61814;BME280;57055;-35.296;149.168;2023-02-13T08:28:32;94521.93;;;19.33;51.74
61814;BME280;57055;-35.296;149.168;2023-02-13T08:31:00;94530.61;;;18.89;51.94
61814;BME280;57055;-35.296;149.168;2023-02-13T08:33:30;94536.08;;;19.14;52.02
61814;BME280;57055;-35.296;149.168;2023-02-13T08:36:01;94548.33;;;19.06;51.92
61814;BME280;57055;-35.296;149.168;2023-02-13T08:38:30;94552.94;;;18.88;51.83
61814;BME280;57055;-35.296;149.168;2023-02-13T08:40:59;94554.28;;;18.64;52.55
61814;BME280;57055;-35.296;149.168;2023-02-13T08:43:28;94562.00;;;18.68;52.23
61814;BME280;57055;-35.296;149.168;2023-02-13T08:45:59;94572.16;;;18.59;52.30
61814;BME280;57055;-35.296;149.168;2023-02-13T08:48:29;94573.74;;;18.51;52.60
61814;BME280;57055;-35.296;149.168;2023-02-13T08:50:58;94573.90;;;18.55;52.30
61814;BME280;57055;-35.296;149.168;2023-02-13T08:53:27;94581.20;;;18.55;52.40
61814;BME280;57055;-35.296;149.168;2023-02-13T08:55:56;94575.69;;;18.49;52.30
61814;BME280;57055;-35.296;149.168;2023-02-13T08:58:25;94567.70;;;18.50;52.08
61814;BME280;57055;-35.296;149.168;2023-02-13T09:00:54;94559.78;;;18.28;52.13
61814;BME280;57055;-35.296;149.168;2023-02-13T09:03:24;94565.54;;;18.20;52.29
61814;BME280;57055;-35.296;149.168;2023-02-13T09:05:53;94567.00;;;18.08;51.94
61814;BME280;57055;-35.296;149.168;2023-02-13T09:08:22;94575.15;;;17.98;52.05
61814;BME280;57055;-35.296;149.168;2023-02-13T09:10:57;94587.05;;;17.96;52.00
61814;BME280;57055;-35.296;149.168;2023-02-13T09:13:34;94596.22;;;18.18;52.13
61814;BME280;57055;-35.296;149.168;2023-02-13T09:16:06;94600.11;;;17.94;52.20
61814;BME280;57055;-35.296;149.168;2023-02-13T09:18:35;94608.39;;;17.60;52.11
61814;BME280;57055;-35.296;149.168;2023-02-13T09:21:12;94618.05;;;17.82;52.25
61814;BME280;57055;-35.296;149.168;2023-02-13T09:23:41;94630.81;;;18.04;52.19
61814;BME280;57055;-35.296;149.168;2023-02-13T09:26:29;94634.25;;;18.13;52.23
61814;BME280;57055;-35.296;149.168;2023-02-13T09:28:58;94626.55;;;17.73;51.98
61814;BME280;57055;-35.296;149.168;2023-02-13T09:31:51;94630.31;;;17.98;51.92
61814;BME280;57055;-35.296;149.168;2023-02-13T09:34:55;94634.99;;;17.81;51.75
61814;BME280;57055;-35.296;149.168;2023-02-13T09:37:25;94637.60;;;17.59;51.21
61814;BME280;57055;-35.296;149.168;2023-02-13T09:39:54;94643.04;;;17.42;51.77
61814;BME280;57055;-35.296;149.168;2023-02-13T09:42:28;94651.25;;;17.55;51.82
61814;BME280;57055;-35.296;149.168;2023-02-13T09:45:00;94658.04;;;17.58;51.95
61814;BME280;57055;-35.296;149.168;2023-02-13T09:47:33;94668.25;;;17.40;52.08
61814;BME280;57055;-35.296;149.168;2023-02-13T09:50:09;94669.60;;;17.23;52.09
61814;BME280;57055;-35.296;149.168;2023-02-13T09:52:43;94667.71;;;17.42;52.11
61814;BME280;57055;-35.296;149.168;2023-02-13T09:55:17;94669.53;;;17.48;51.91
61814;BME280;57055;-35.296;149.168;2023-02-13T09:57:51;94671.51;;;17.37;51.84
61814;BME280;57055;-35.296;149.168;2023-02-13T10:00:28;94674.98;;;17.44;52.08
61814;BME280;57055;-35.296;149.168;2023-02-13T10:03:19;94683.56;;;17.19;52.09
61814;BME280;57055;-35.296;149.168;2023-02-13T10:05:59;94692.38;;;17.10;52.26
